Time;durP1;ratioP1;P1;durP2;ratioP2;P2;SDS_P1;SDS_P2;PMS_P1;PMS_P2;Temp;Humidity;BMP_temperature;BMP_pressure;BME280_temperature;BME280_humidity;BME280_pressure;Samples;Min_cycle;Max_cycle;Signal;HPM_P1;HPM_P2
2022/03/18 00:00:02;;;;;;;0.67;0.67;;;;;;;7.23;100.00;96723.50;5132936;27;20526;-52
2022/03/18 00:02:31;;;;;;;0.80;0.77;;;;;;;7.42;100.00;96725.97;5132731;27;20509;-52
2022/03/18 00:04:59;;;;;;;0.83;0.40;;;;;;;7.35;100.00;96719.94;5133012;27;20481;-52
2022/03/18 00:07:28;;;;;;;0.67;0.67;;;;;;;7.35;100.00;96717.31;5132514;27;20458;-53
2022/03/18 00:09:56;;;;;;;0.40;0.40;;;;;;;7.32;100.00;96715.09;5132671;27;20438;-53
2022/03/18 00:12:26;;;;;;;0.63;0.63;;;;;;;7.34;100.00;96712.22;5132507;27;20526;-53
2022/03/18 00:14:55;;;;;;;0.70;0.70;;;;;;;7.44;100.00;96720.47;5132466;27;20422;-52
2022/03/18 00:17:23;;;;;;;0.67;0.67;;;;;;;7.19;100.00;96661.63;5132634;27;20466;-52
2022/03/18 00:19:52;;;;;;;0.30;0.20;;;;;;;7.56;100.00;96716.91;5132613;27;20433;-52
2022/03/18 00:22:20;;;;;;;2.60;2.50;;;;;;;7.39;100.00;96718.47;5132804;27;20491;-52
2022/03/18 00:24:49;;;;;;;0.30;0.30;;;;;;;7.06;100.00;96667.81;5132920;28;20812;-52
2022/03/18 00:27:17;;;;;;;0.40;0.37;;;;;;;7.37;100.00;96714.44;5132001;27;20527;-52
2022/03/18 00:29:47;;;;;;;0.30;0.20;;;;;;;7.38;100.00;96724.81;5132851;27;20501;-52
2022/03/18 00:32:16;;;;;;;0.40;0.30;;;;;;;6.94;100.00;96666.91;5132413;28;20430;-52
2022/03/18 00:34:44;;;;;;;0.30;0.20;;;;;;;7.45;100.00;96717.63;5132230;28;20828;-52
2022/03/18 00:37:13;;;;;;;0.60;0.30;;;;;;;7.42;100.00;96719.88;5132609;28;20464;-52
2022/03/18 00:39:41;;;;;;;2.43;2.33;;;;;;;7.32;100.00;96696.63;5131792;28;20466;-52
2022/03/18 00:42:11;;;;;;;1.70;1.00;;;;;;;5.91;100.00;96499.59;5132359;28;20426;-52
2022/03/18 00:44:39;;;;;;;2.53;1.60;;;;;;;7.07;100.00;96718.72;5131987;28;20512;-52
2022/03/18 00:52:03;;;;;;;0.40;0.33;;;;;;;6.99;100.00;96719.78;5132159;27;20418;-52
2022/03/18 00:52:44;;;;;;;0.40;0.33;;;;;;;6.78;100.00;96712.22;5132160;28;20470;-52
2022/03/18 00:55:12;;;;;;;0.90;0.50;;;;;;;7.01;100.00;96720.38;5132346;28;20845;-52
2022/03/18 00:57:41;;;;;;;0.60;0.60;;;;;;;7.20;100.00;96722.09;5132130;28;20482;-53
2022/03/18 01:00:10;;;;;;;3.33;3.03;;;;;;;7.36;100.00;96724.19;5132173;28;20503;-52
2022/03/18 01:02:39;;;;;;;0.67;0.67;;;;;;;7.45;100.00;96727.38;5131896;28;20452;-52
2022/03/18 01:05:09;;;;;;;0.30;0.30;;;;;;;7.11;100.00;96694.34;5132006;28;20418;-52
2022/03/18 01:07:37;;;;;;;0.40;0.30;;;;;;;7.27;100.00;96724.66;5131455;28;21048;-52
2022/03/18 01:10:08;;;;;;;0.70;0.70;;;;;;;7.26;100.00;96730.97;5132369;27;20438;-52
2022/03/18 01:12:36;;;;;;;0.30;0.20;;;;;;;6.99;100.00;96732.97;5132316;27;20869;-52
2022/03/18 01:15:05;;;;;;;0.67;0.67;;;;;;;7.15;100.00;96744.84;5132092;28;20448;-52
2022/03/18 01:17:34;;;;;;;0.73;0.73;;;;;;;7.15;100.00;96734.28;5131942;27;20423;-52
2022/03/18 01:20:05;;;;;;;0.30;0.20;;;;;;;7.27;100.00;96730.75;5132225;28;20502;-53
2022/03/18 01:22:33;;;;;;;0.40;0.40;;;;;;;7.24;100.00;96738.28;5131850;27;20491;-52
2022/03/18 01:25:01;;;;;;;0.40;0.40;;;;;;;7.31;100.00;96734.56;5131942;28;20462;-52
2022/03/18 01:27:32;;;;;;;1.27;1.17;;;;;;;7.25;100.00;96718.81;5131767;28;20433;-52
2022/03/18 01:30:00;;;;;;;0.30;0.30;;;;;;;7.28;100.00;96735.00;5131815;28;20786;-52
2022/03/18 01:32:29;;;;;;;0.30;0.30;;;;;;;7.33;100.00;96740.47;5131402;27;20470;-52
2022/03/18 01:34:57;;;;;;;0.30;0.20;;;;;;;7.31;100.00;96745.13;5131870;28;20924;-52
2022/03/18 01:37:27;;;;;;;0.40;0.30;;;;;;;6.99;100.00;96735.59;5131718;28;20469;-53
2022/03/18 01:39:55;;;;;;;0.43;0.40;;;;;;;6.75;100.00;96744.25;5133396;27;20422;-52
2022/03/18 01:42:24;;;;;;;0.40;0.30;;;;;;;7.02;100.00;96743.09;5135224;27;20445;-52
2022/03/18 01:44:52;;;;;;;1.20;1.20;;;;;;;6.57;100.00;96663.28;5135528;27;20496;-53
2022/03/18 01:47:21;;;;;;;0.37;0.30;;;;;;;7.20;100.00;96739.72;5135497;27;20814;-52
2022/03/18 01:49:50;;;;;;;1.40;1.40;;;;;;;6.92;100.00;96735.66;5135413;27;20462;-52
2022/03/18 01:52:18;;;;;;;0.60;0.60;;;;;;;6.46;100.00;96750.84;5135552;27;20427;-52
2022/03/18 01:54:48;;;;;;;0.50;0.50;;;;;;;6.38;100.00;96753.72;5135639;27;20501;-53
2022/03/18 01:57:19;;;;;;;0.40;0.40;;;;;;;6.43;100.00;96743.34;5134920;27;20466;-52
2022/03/18 01:59:47;;;;;;;0.50;0.47;;;;;;;6.71;100.00;96756.22;5135535;27;20450;-52
2022/03/18 02:02:17;;;;;;;0.30;0.20;;;;;;;6.44;100.00;96696.78;5135156;27;20513;-53
2022/03/18 02:04:46;;;;;;;0.37;0.30;;;;;;;6.92;100.00;96750.66;5135046;27;20466;-53
2022/03/18 02:07:15;;;;;;;0.57;0.57;;;;;;;6.41;100.00;96758.56;5134689;27;20427;-53
2022/03/18 02:09:44;;;;;;;0.40;0.40;;;;;;;6.79;100.00;96755.97;5135042;27;20474;-53
2022/03/18 02:12:15;;;;;;;0.57;0.57;;;;;;;6.87;100.00;96755.75;5134868;27;20487;-53
2022/03/18 02:14:44;;;;;;;0.30;0.20;;;;;;;6.90;100.00;96747.41;5135068;27;20982;-53
2022/03/18 02:17:15;;;;;;;0.40;0.30;;;;;;;6.80;100.00;96733.88;5134858;27;20922;-53
2022/03/18 02:19:44;;;;;;;1.13;1.13;;;;;;;7.02;100.00;96754.44;5135208;27;20511;-53
2022/03/18 02:22:14;;;;;;;0.40;0.30;;;;;;;6.30;100.00;96644.16;5134697;27;20518;-52
2022/03/18 02:24:46;;;;;;;0.30;0.20;;;;;;;6.77;100.00;96763.28;5134782;27;20458;-53
2022/03/18 02:27:15;;;;;;;0.30;0.20;;;;;;;6.64;100.00;96764.16;5134656;27;20475;-53
2022/03/18 02:29:44;;;;;;;0.30;0.20;;;;;;;6.66;100.00;96772.66;5135020;27;20466;-53
2022/03/18 02:32:14;;;;;;;0.30;0.20;;;;;;;6.43;100.00;96764.44;5134682;27;20509;-53
2022/03/18 02:34:43;;;;;;;2.63;2.53;;;;;;;6.48;100.00;96763.81;5134586;27;20438;-53
2022/03/18 02:37:12;;;;;;;0.30;0.20;;;;;;;6.51;100.00;96763.38;5134784;27;20469;-53
2022/03/18 02:39:41;;;;;;;0.30;0.20;;;;;;;6.63;100.00;96761.75;5134506;27;20430;-53
2022/03/18 02:42:11;;;;;;;0.70;0.70;;;;;;;6.44;100.00;96757.34;5134467;27;20955;-53
2022/03/18 02:44:39;;;;;;;0.40;0.30;;;;;;;6.28;100.00;96717.28;5134544;27;20536;-53
2022/03/18 02:47:08;;;;;;;0.30;0.20;;;;;;;6.19;100.00;96763.28;5134430;27;20858;-53
2022/03/18 02:49:37;;;;;;;0.47;0.47;;;;;;;6.32;100.00;96763.25;5134269;27;20878;-53
2022/03/18 02:52:06;;;;;;;0.40;0.40;;;;;;;6.27;100.00;96763.06;5133913;27;20990;-53
2022/03/18 02:54:35;;;;;;;0.60;0.60;;;;;;;6.52;100.00;96762.38;5134473;27;20462;-53
2022/03/18 02:57:03;;;;;;;0.30;0.20;;;;;;;6.46;100.00;96769.28;5134020;27;20456;-53
2022/03/18 02:59:33;;;;;;;0.70;0.50;;;;;;;5.87;100.00;96750.97;5134402;27;20419;-53
2022/03/18 03:02:01;;;;;;;0.30;0.20;;;;;;;6.01;100.00;96768.38;5133933;27;20461;-54
2022/03/18 03:04:30;;;;;;;0.40;0.23;;;;;;;6.03;100.00;96776.88;5134223;27;20470;-53
2022/03/18 03:09:45;;;;;;;0.30;0.20;;;;;;;5.57;100.00;96765.53;5133888;27;20434;-53
2022/03/18 03:12:13;;;;;;;0.37;0.30;;;;;;;5.74;100.00;96741.25;5133320;27;20482;-53
2022/03/18 03:14:43;;;;;;;2.80;0.60;;;;;;;5.65;100.00;96775.88;5133762;27;20469;-53
2022/03/18 03:17:12;;;;;;;3.70;0.60;;;;;;;5.64;100.00;96782.16;5133771;27;20455;-53
2022/03/18 03:19:40;;;;;;;0.30;0.30;;;;;;;5.58;100.00;96778.50;5133760;27;21068;-53
2022/03/18 03:22:09;;;;;;;0.30;0.20;;;;;;;5.82;100.00;96779.69;5133937;27;20517;-53
2022/03/18 03:24:39;;;;;;;0.30;0.20;;;;;;;5.37;100.00;96791.03;5133498;27;20497;-53
2022/03/18 03:27:07;;;;;;;0.30;0.20;;;;;;;0.28;100.00;96007.25;5133111;27;20517;-53
2022/03/18 03:29:36;;;;;;;0.40;0.40;;;;;;;5.37;100.00;96788.38;5133922;27;20446;-53
2022/03/18 03:32:06;;;;;;;0.30;0.20;;;;;;;5.74;100.00;96796.50;5132900;27;20836;-54
2022/03/18 03:34:36;;;;;;;0.30;0.20;;;;;;;5.99;100.00;96793.28;5133757;27;20465;-53
2022/03/18 03:37:05;;;;;;;0.30;0.20;;;;;;;5.82;100.00;96792.06;5133615;27;20983;-53
2022/03/18 03:39:33;;;;;;;0.30;0.20;;;;;;;5.77;100.00;96767.16;5133292;27;20469;-53
2022/03/18 03:42:02;;;;;;;14.67;1.00;;;;;;;5.89;100.00;96798.97;5133651;27;20808;-53
2022/03/18 03:44:30;;;;;;;0.30;0.23;;;;;;;5.80;100.00;96805.41;5133497;27;20501;-54
2022/03/18 03:46:59;;;;;;;0.30;0.20;;;;;;;5.52;100.00;96773.22;5133428;27;20506;-54
2022/03/18 03:49:29;;;;;;;0.30;0.20;;;;;;;5.23;100.00;96774.44;5133023;27;20937;-53
2022/03/18 03:51:58;;;;;;;0.30;0.20;;;;;;;-0.18;100.00;95972.19;5132373;27;20517;-54
2022/03/18 03:54:27;;;;;;;0.30;0.20;;;;;;;5.69;100.00;96819.19;5133068;27;20529;-54
2022/03/18 03:56:56;;;;;;;0.30;0.20;;;;;;;5.69;100.00;96812.06;5132851;27;20469;-54
2022/03/18 03:59:24;;;;;;;0.40;0.37;;;;;;;5.41;100.00;96829.88;5133280;27;20553;-54
2022/03/18 04:01:53;;;;;;;4.63;0.83;;;;;;;5.52;100.00;96825.81;5132642;27;20438;-54
2022/03/18 04:04:22;;;;;;;1.30;1.30;;;;;;;5.22;100.00;96824.56;5132124;27;20423;-53
2022/03/18 04:06:51;;;;;;;0.30;0.30;;;;;;;5.38;100.00;96834.72;5133158;27;20474;-53
2022/03/18 04:09:20;;;;;;;0.40;0.40;;;;;;;5.47;100.00;96830.88;5132670;27;20466;-53
2022/03/18 04:11:48;;;;;;;0.30;0.20;;;;;;;5.67;100.00;96844.84;5132791;27;20941;-53
2022/03/18 04:14:17;;;;;;;0.80;0.33;;;;;;;4.22;100.00;96624.91;5132917;27;20445;-52
2022/03/18 04:16:46;;;;;;;0.40;0.30;;;;;;;5.61;100.00;96849.13;5132433;27;20474;-53
2022/03/18 04:19:14;;;;;;;0.50;0.47;;;;;;;5.06;100.00;96846.75;5132492;27;20430;-53
2022/03/18 04:21:43;;;;;;;0.30;0.20;;;;;;;5.17;100.00;96866.41;5132694;27;20485;-54
2022/03/18 04:24:13;;;;;;;0.30;0.20;;;;;;;4.93;100.00;96852.75;5132763;27;20842;-51
2022/03/18 04:26:43;;;;;;;0.40;0.33;;;;;;;4.89;100.00;96864.69;5132577;28;20414;-53
2022/03/18 04:29:12;;;;;;;0.30;0.20;;;;;;;4.33;100.00;96808.84;5132557;28;20937;-52
2022/03/18 04:31:41;;;;;;;0.30;0.20;;;;;;;4.58;100.00;96864.31;5132901;28;20426;-52
2022/03/18 04:34:09;;;;;;;0.30;0.20;;;;;;;4.63;100.00;96829.63;5132382;28;20426;-52
2022/03/18 04:36:38;;;;;;;0.40;0.30;;;;;;;5.19;100.00;96872.28;5132829;27;20415;-52
2022/03/18 04:39:06;;;;;;;0.30;0.20;;;;;;;4.86;100.00;96872.94;5132701;28;20506;-53
2022/03/18 04:41:36;;;;;;;0.50;0.50;;;;;;;4.95;93.46;96877.03;5132343;28;20461;-52
2022/03/18 04:44:05;;;;;;;0.30;0.20;;;;;;;5.31;93.34;96882.03;5132517;28;20811;-53
2022/03/18 04:46:33;;;;;;;0.30;0.20;;;;;;;4.31;90.95;96736.56;5132276;27;20557;-53
2022/03/18 04:49:02;;;;;;;0.30;0.20;;;;;;;4.96;92.22;96885.72;5132532;28;20422;-53
2022/03/18 04:51:31;;;;;;;0.60;0.60;;;;;;;4.55;91.11;96890.97;5132439;28;20465;-53
2022/03/18 04:54:00;;;;;;;0.30;0.20;;;;;;;4.47;85.34;96901.63;5132246;28;20455;-53
2022/03/18 04:59:16;;;;;;;0.30;0.20;;;;;;;4.08;81.55;96896.91;5132707;28;20522;-53
2022/03/18 05:01:44;;;;;;;0.30;0.20;;;;;;;4.59;82.26;96928.97;5132535;27;20458;-52
2022/03/18 05:04:13;;;;;;;0.57;0.30;;;;;;;4.38;81.88;96884.41;5132473;27;21041;-53
2022/03/18 05:06:41;;;;;;;0.70;0.70;;;;;;;3.61;80.16;96866.06;5132194;28;20872;-53
2022/03/18 05:09:09;;;;;;;0.30;0.20;;;;;;;3.57;91.35;96812.34;5131275;28;20510;-53
2022/03/18 05:11:38;;;;;;;0.40;0.30;;;;;;;4.27;80.23;96908.56;5132395;28;20427;-53
2022/03/18 05:14:06;;;;;;;0.30;0.30;;;;;;;3.92;80.18;96846.53;5134268;27;20422;-53
2022/03/18 05:16:36;;;;;;;0.30;0.20;;;;;;;3.87;79.94;96919.72;5136554;27;20438;-53
2022/03/18 05:19:05;;;;;;;0.40;0.40;;;;;;;3.98;78.07;96924.47;5136025;27;20426;-53
2022/03/18 05:21:33;;;;;;;0.30;0.20;;;;;;;3.96;80.76;96913.34;5136025;27;20521;-53
2022/03/18 05:24:02;;;;;;;1.07;0.30;;;;;;;3.78;81.02;96927.72;5135097;27;20411;-54
2022/03/18 05:26:30;;;;;;;0.30;0.20;;;;;;;4.00;78.13;96923.25;5136201;27;20841;-54
2022/03/18 05:28:59;;;;;;;0.30;0.20;;;;;;;4.12;74.99;96944.56;5136439;27;20486;-53
2022/03/18 05:31:27;;;;;;;1.70;0.47;;;;;;;3.98;75.35;96940.19;5135709;27;20465;-53
2022/03/18 05:33:58;;;;;;;0.40;0.37;;;;;;;3.92;77.12;96946.22;5135399;27;20433;-54
2022/03/18 05:36:27;;;;;;;0.30;0.20;;;;;;;4.14;80.14;96950.44;5135738;27;20442;-52
2022/03/18 05:38:55;;;;;;;0.30;0.20;;;;;;;4.15;81.09;96912.72;5135931;27;20487;-54
2022/03/18 05:41:27;;;;;;;0.30;0.20;;;;;;;4.25;77.03;96957.81;5135654;27;20844;-54
2022/03/18 05:43:55;;;;;;;0.30;0.20;;;;;;;4.15;78.86;96968.59;5135869;27;20864;-53
2022/03/18 05:46:24;;;;;;;0.60;0.57;;;;;;;3.86;77.65;96913.66;5135447;27;20545;-53
2022/03/18 05:48:52;;;;;;;0.77;0.77;;;;;;;3.96;77.03;96921.22;5135674;27;20427;-53
2022/03/18 05:51:22;;;;;;;0.30;0.30;;;;;;;4.02;80.71;96942.28;5135855;27;20438;-53
2022/03/18 05:53:50;;;;;;;0.30;0.20;;;;;;;3.85;79.60;96931.22;5135381;27;20870;-53
2022/03/18 05:59:07;;;;;;;0.37;0.30;;;;;;;4.32;76.46;96977.03;5135093;27;20483;-53
2022/03/18 06:01:38;;;;;;;2.20;0.50;;;;;;;4.16;87.99;96906.44;5135298;27;20422;-54
2022/03/18 06:04:10;;;;;;;0.30;0.20;;;;;;;4.48;75.05;96985.44;5135190;27;20430;-53
2022/03/18 06:06:41;;;;;;;0.30;0.27;;;;;;;4.25;73.17;96984.06;5135407;27;20505;-54
2022/03/18 06:11:56;;;;;;;0.40;0.30;;;;;;;4.32;82.33;96974.41;5135005;27;20426;-53
2022/03/18 06:14:26;;;;;;;0.30;0.20;;;;;;;4.04;74.94;97005.88;5135220;27;20504;-53
2022/03/18 06:16:55;;;;;;;0.50;0.47;;;;;;;3.49;74.86;96883.25;5135331;27;20505;-53
2022/03/18 06:19:25;;;;;;;0.30;0.20;;;;;;;3.92;70.37;97009.16;5134692;27;20434;-53
2022/03/18 06:21:55;;;;;;;0.40;0.23;;;;;;;3.72;71.08;97014.19;5134974;27;20465;-53
2022/03/18 06:24:24;;;;;;;1.23;1.23;;;;;;;3.90;76.62;97017.19;5134929;27;20474;-53
2022/03/18 06:26:53;;;;;;;0.30;0.20;;;;;;;3.78;69.29;97019.50;5134139;27;20462;-54
2022/03/18 06:29:22;;;;;;;0.30;0.20;;;;;;;4.06;70.17;97021.41;5134858;27;20455;-54
2022/03/18 06:31:51;;;;;;;0.73;0.73;;;;;;;3.71;68.31;97036.16;5135250;27;20485;-54
2022/03/18 06:34:21;;;;;;;0.30;0.20;;;;;;;3.65;67.01;97032.47;5134388;27;20438;-54
2022/03/18 06:36:50;;;;;;;0.30;0.20;;;;;;;3.80;71.25;97022.75;5134822;27;20477;-54
2022/03/18 06:39:24;;;;;;;0.30;0.20;;;;;;;3.78;68.52;97022.13;5134547;27;20495;-54
2022/03/18 06:41:54;;;;;;;0.40;0.40;;;;;;;4.04;71.38;97039.97;5134829;27;20450;-54
2022/03/18 06:44:22;;;;;;;6.13;0.73;;;;;;;3.67;68.44;96983.28;5134832;27;20803;-54
2022/03/18 06:46:51;;;;;;;0.30;0.30;;;;;;;4.22;67.61;97023.78;5134386;27;20497;-54
2022/03/18 06:49:19;;;;;;;0.30;0.20;;;;;;;4.06;66.15;97047.66;5134437;27;20458;-54
2022/03/18 06:51:47;;;;;;;0.30;0.30;;;;;;;3.18;64.81;96852.13;5134491;27;20946;-53
2022/03/18 06:54:16;;;;;;;0.60;0.60;;;;;;;4.07;65.74;97057.16;5134705;27;20427;-53
2022/03/18 06:56:45;;;;;;;0.90;0.90;;;;;;;4.13;63.32;97053.75;5134262;27;20934;-54
2022/03/18 06:59:14;;;;;;;0.83;0.83;;;;;;;4.28;64.18;97054.53;5134367;27;20430;-53
2022/03/18 07:01:42;;;;;;;0.30;0.20;;;;;;;3.76;63.42;97005.78;5134297;27;20941;-53
2022/03/18 07:04:11;;;;;;;2.70;2.50;;;;;;;4.63;66.96;97061.50;5134661;27;20426;-54
2022/03/18 07:06:40;;;;;;;0.30;0.20;;;;;;;4.50;61.73;97064.03;5134416;27;20561;-53
2022/03/18 07:09:08;;;;;;;0.30;0.20;;;;;;;4.42;68.34;97056.28;5133982;27;20474;-53
2022/03/18 07:11:36;;;;;;;0.67;0.67;;;;;;;4.68;74.75;97039.94;5133875;27;20435;-53
2022/03/18 07:14:06;;;;;;;1.17;1.17;;;;;;;4.81;59.92;97069.75;5133598;27;20458;-53
2022/03/18 07:19:20;;;;;;;1.50;1.50;;;;;;;4.58;60.69;97082.25;5134105;27;20418;-53
2022/03/18 07:21:48;;;;;;;0.30;0.30;;;;;;;4.85;60.50;97081.50;5134282;27;21014;-53
2022/03/18 07:24:17;;;;;;;0.30;0.30;;;;;;;5.04;58.45;97075.56;5133814;27;20502;-53
2022/03/18 07:26:45;;;;;;;0.53;0.53;;;;;;;5.16;56.88;97067.19;5133704;27;21033;-53
2022/03/18 07:29:15;;;;;;;0.43;0.43;;;;;;;5.27;58.25;97064.00;5133812;27;20501;-53
2022/03/18 07:31:43;;;;;;;0.57;0.33;;;;;;;5.35;54.57;97061.22;5134073;27;20489;-53
2022/03/18 07:34:12;;;;;;;0.40;0.33;;;;;;;5.72;52.60;97072.13;5133744;27;20869;-54
2022/03/18 07:36:40;;;;;;;0.30;0.20;;;;;;;5.33;51.70;97069.31;5133290;27;20853;-53
2022/03/18 07:39:09;;;;;;;0.40;0.30;;;;;;;5.45;50.90;97072.19;5133174;27;20937;-52
2022/03/18 07:41:37;;;;;;;0.40;0.30;;;;;;;5.79;49.94;97066.91;5133788;27;20993;-52
2022/03/18 07:44:06;;;;;;;0.53;0.53;;;;;;;5.74;50.77;97061.44;5133538;27;20426;-52
2022/03/18 07:46:36;;;;;;;0.30;0.20;;;;;;;5.47;49.88;97067.53;5133320;27;20462;-52
2022/03/18 07:49:05;;;;;;;0.57;0.57;;;;;;;6.11;58.80;97068.88;5133362;27;20431;-52
2022/03/18 07:51:33;;;;;;;0.30;0.30;;;;;;;6.34;49.28;97071.97;5133597;27;20887;-54
2022/03/18 07:54:02;;;;;;;0.30;0.20;;;;;;;6.42;48.00;97072.78;5133013;27;20427;-54
2022/03/18 07:56:31;;;;;;;0.67;0.67;;;;;;;6.51;51.41;97071.56;5133276;27;20422;-53
2022/03/18 07:59:00;;;;;;;1.20;1.20;;;;;;;6.34;47.24;97085.13;5133424;27;20499;-53
2022/03/18 08:01:29;;;;;;;0.30;0.20;;;;;;;6.54;63.38;97079.06;5133464;27;20443;-53
2022/03/18 08:03:59;;;;;;;0.30;0.20;;;;;;;6.58;48.50;97036.31;5132916;27;20514;-53
2022/03/18 08:06:28;;;;;;;0.40;0.40;;;;;;;6.19;46.78;97081.84;5133083;27;20429;-53
2022/03/18 08:08:56;;;;;;;0.97;0.97;;;;;;;6.82;62.32;97077.09;5132637;27;20986;-53
2022/03/18 08:11:25;;;;;;;7.20;0.60;;;;;;;7.10;56.94;97074.22;5133085;27;20811;-52
2022/03/18 08:13:54;;;;;;;0.30;0.30;;;;;;;6.69;46.68;97064.72;5132948;27;20468;-52
2022/03/18 08:16:23;;;;;;;0.57;0.57;;;;;;;6.74;47.68;97082.53;5132914;27;20512;-51
2022/03/18 08:18:54;;;;;;;0.30;0.20;;;;;;;6.10;46.15;96964.56;5132700;27;20427;-51
2022/03/18 08:21:24;;;;;;;0.50;0.50;;;;;;;6.71;45.29;97075.03;5132846;27;20938;-51
2022/03/18 08:23:52;;;;;;;2.10;0.77;;;;;;;7.13;44.63;97061.47;5132965;27;20514;-51
2022/03/18 08:26:21;;;;;;;1.90;1.80;;;;;;;6.94;44.08;97039.38;5132682;27;20506;-51
2022/03/18 08:28:49;;;;;;;0.47;0.47;;;;;;;7.51;44.48;97056.31;5132484;28;20562;-51
2022/03/18 08:31:18;;;;;;;0.40;0.40;;;;;;;7.48;43.56;97067.28;5132291;28;20426;-51
2022/03/18 08:33:46;;;;;;;2.37;2.27;;;;;;;7.28;46.72;97083.16;5133002;28;20429;-51
2022/03/18 08:36:22;;;;;;;0.77;0.70;;;;;;;7.20;42.59;97082.53;5132803;27;20859;-51
2022/03/18 08:38:52;;;;;;;0.30;0.20;;;;;;;7.28;41.50;97080.50;5132841;28;20494;-51
2022/03/18 08:41:20;;;;;;;1.13;0.67;;;;;;;7.58;41.65;97083.47;5132963;28;20895;-51
2022/03/18 08:43:49;;;;;;;2.63;1.17;;;;;;;7.09;39.76;97077.88;5132700;27;20464;-51
2022/03/18 08:46:17;;;;;;;0.30;0.20;;;;;;;6.94;40.79;96996.38;5132542;28;20922;-51
2022/03/18 08:48:46;;;;;;;0.40;0.30;;;;;;;7.39;40.19;97074.59;5133821;27;20470;-50
2022/03/18 08:51:15;;;;;;;0.30;0.20;;;;;;;8.01;41.14;97076.63;5136781;27;20517;-50
2022/03/18 08:53:44;;;;;;;0.40;0.40;;;;;;;7.60;39.91;97016.28;5136683;27;21002;-50
2022/03/18 08:56:13;;;;;;;0.40;0.30;;;;;;;7.99;37.95;97076.03;5136795;27;20499;-50
2022/03/18 08:58:45;;;;;;;0.47;0.47;;;;;;;8.27;37.00;97071.25;5136431;27;20431;-50
2022/03/18 09:01:13;;;;;;;0.43;0.40;;;;;;;8.20;37.14;97033.47;5136337;27;20518;-50
2022/03/18 09:03:42;;;;;;;0.30;0.30;;;;;;;8.52;37.21;97046.72;5136497;27;20422;-49
2022/03/18 09:06:12;;;;;;;0.43;0.40;;;;;;;8.56;36.94;97027.56;5136712;27;20423;-49
2022/03/18 09:08:41;;;;;;;0.53;0.50;;;;;;;9.49;37.77;97060.91;5135880;27;20554;-49
2022/03/18 09:11:10;;;;;;;0.60;0.60;;;;;;;9.99;33.35;97056.25;5136287;27;20463;-52
2022/03/18 09:13:40;;;;;;;1.40;0.57;;;;;;;9.13;34.25;97063.53;5136305;27;20434;-52
2022/03/18 09:16:08;;;;;;;0.30;0.20;;;;;;;10.17;34.29;97061.56;5136402;27;20479;-51
2022/03/18 09:18:57;;;;;;;0.43;0.30;;;;;;;10.11;33.50;97029.84;5135919;27;20825;-52
2022/03/18 09:21:25;;;;;;;0.47;0.47;;;;;;;10.38;32.49;97062.09;5136406;27;20457;-52
2022/03/18 09:23:54;;;;;;;0.30;0.30;;;;;;;11.19;34.66;97051.66;5136114;27;20430;-53
2022/03/18 09:26:22;;;;;;;3.20;0.73;;;;;;;11.06;35.01;97055.34;5136090;27;20426;-52
2022/03/18 09:28:52;;;;;;;2.70;0.73;;;;;;;10.78;33.06;97052.53;5135799;27;20469;-54
2022/03/18 09:31:22;;;;;;;1.00;1.00;;;;;;;11.65;31.96;97048.19;5135934;27;20431;-54
2022/03/18 09:33:50;;;;;;;0.30;0.30;;;;;;;11.78;29.73;97043.47;5135959;27;20933;-53
2022/03/18 09:36:20;;;;;;;0.60;0.60;;;;;;;12.37;30.98;97049.41;5136464;27;20426;-56
2022/03/18 09:38:50;;;;;;;0.70;0.60;;;;;;;12.51;29.20;97035.56;5136401;27;20793;-55
2022/03/18 09:41:19;;;;;;;0.53;0.40;;;;;;;12.99;33.71;97039.53;5136715;27;20491;-56
2022/03/18 09:43:48;;;;;;;0.40;0.30;;;;;;;11.70;28.47;96833.16;5136186;27;20419;-56
2022/03/18 09:46:19;;;;;;;1.20;1.10;;;;;;;11.69;28.71;97036.88;5136482;27;20430;-55
2022/03/18 09:49:11;;;;;;;1.10;0.80;;;;;;;12.88;28.32;97032.44;5136664;27;20510;-56
2022/03/18 09:51:42;;;;;;;1.73;0.67;;;;;;;13.61;30.04;97035.69;5136636;27;20855;-56
2022/03/18 09:54:17;;;;;;;1.63;1.10;;;;;;;13.27;27.26;97029.66;5136850;27;20434;-57
2022/03/18 09:56:49;;;;;;;0.60;0.60;;;;;;;13.34;25.86;97016.97;5138631;27;20877;-57
2022/03/18 09:59:19;;;;;;;1.13;1.13;;;;;;;12.64;24.73;97031.78;5138558;27;20410;-56
2022/03/18 10:01:51;;;;;;;0.40;0.40;;;;;;;14.13;28.08;97025.44;5136926;27;20809;-56
2022/03/18 10:04:20;;;;;;;0.50;0.50;;;;;;;14.05;27.73;97027.72;5138629;27;20965;-56
2022/03/18 10:06:49;;;;;;;0.50;0.50;;;;;;;14.52;26.29;97015.47;5136972;27;20427;-57
2022/03/18 10:09:29;;;;;;;2.53;2.10;;;;;;;13.95;27.32;97021.22;5135235;27;20517;-56
2022/03/18 10:11:59;;;;;;;0.40;0.30;;;;;;;12.74;26.41;97027.44;5135248;27;20522;-56
2022/03/18 10:14:28;;;;;;;0.60;0.60;;;;;;;14.71;24.70;96971.34;5135467;27;20427;-56
2022/03/18 10:17:02;;;;;;;0.80;0.80;;;;;;;14.20;25.54;97025.22;5135310;27;20510;-56
2022/03/18 10:19:30;;;;;;;0.40;0.30;;;;;;;14.11;24.77;97022.22;5135187;27;20435;-55
2022/03/18 10:22:00;;;;;;;1.40;1.30;;;;;;;14.00;27.51;97020.47;5134902;27;20453;-56
2022/03/18 10:24:30;;;;;;;0.40;0.33;;;;;;;14.91;23.47;97000.03;5134627;27;20510;-54
2022/03/18 10:27:13;;;;;;;0.40;0.30;;;;;;;14.14;24.92;97008.34;5134784;27;20427;-54
2022/03/18 10:29:43;;;;;;;0.67;0.67;;;;;;;14.43;29.12;97000.97;5134630;27;21069;-54
2022/03/18 10:32:15;;;;;;;0.80;0.80;;;;;;;14.28;25.48;97009.59;5134845;27;20495;-55
2022/03/18 10:37:42;;;;;;;6.57;1.37;;;;;;;14.80;24.13;96999.16;5134835;27;20507;-56
2022/03/18 10:40:11;;;;;;;0.73;0.73;;;;;;;14.20;24.55;96991.38;5134607;27;20491;-54
2022/03/18 10:42:56;;;;;;;0.70;0.70;;;;;;;16.20;26.09;96982.31;5134634;27;20422;-55
2022/03/18 10:45:25;;;;;;;0.40;0.30;;;;;;;15.28;24.73;96985.63;5134547;27;20983;-55
2022/03/18 10:48:10;;;;;;;0.30;0.20;;;;;;;14.79;23.92;96978.88;5133777;27;20521;-55
2022/03/18 10:51:01;;;;;;;4.20;1.03;;;;;;;13.93;24.64;96991.34;5134441;27;20433;-55
2022/03/18 10:53:31;;;;;;;0.80;0.80;;;;;;;14.25;23.45;97036.75;5134580;27;20442;-53
2022/03/18 10:56:01;;;;;;;0.50;0.50;;;;;;;14.10;24.99;96982.44;5133987;27;20477;-55
2022/03/18 10:58:32;;;;;;;1.00;0.60;;;;;;;13.09;27.21;96790.31;5134325;27;20462;-55
2022/03/18 11:01:02;;;;;;;0.77;0.77;;;;;;;14.88;25.61;96976.53;5134289;27;20470;-55
2022/03/18 11:03:35;;;;;;;0.50;0.33;;;;;;;14.17;25.99;96964.38;5134550;27;20433;-55
2022/03/18 11:06:04;;;;;;;1.60;1.50;;;;;;;14.95;25.03;96955.78;5133831;27;20423;-55
2022/03/18 11:08:45;;;;;;;0.40;0.40;;;;;;;15.35;23.30;96957.88;5132684;27;20900;-55
2022/03/18 11:11:22;;;;;;;1.47;0.83;;;;;;;15.02;24.34;96938.47;5133956;27;20419;-54
2022/03/18 11:14:03;;;;;;;0.53;0.40;;;;;;;14.10;24.45;96953.13;5133977;27;20470;-55
2022/03/18 11:16:38;;;;;;;0.53;0.53;;;;;;;14.97;22.23;96946.44;5134246;27;20481;-54
2022/03/18 11:19:15;;;;;;;0.43;0.30;;;;;;;15.84;23.24;96946.63;5134034;27;20453;-54
2022/03/18 11:21:47;;;;;;;0.87;0.77;;;;;;;15.61;25.96;96947.06;5133601;27;20868;-55
2022/03/18 11:24:22;;;;;;;0.73;0.73;;;;;;;15.98;23.98;96932.78;5133648;27;20475;-54
2022/03/18 11:26:53;;;;;;;0.50;0.30;;;;;;;15.05;22.16;96942.50;5133788;27;20422;-55
2022/03/18 11:29:24;;;;;;;0.40;0.40;;;;;;;15.66;25.55;96935.63;5133548;27;20486;-55
2022/03/18 11:32:21;;;;;;;0.90;0.90;;;;;;;16.41;24.20;96925.09;5133542;27;20883;-55
2022/03/18 11:34:56;;;;;;;0.73;0.73;;;;;;;15.33;23.20;96928.75;5115785;27;20975;-55
2022/03/18 11:37:26;;;;;;;0.40;0.40;;;;;;;15.36;21.41;96928.22;5133516;27;20518;-55
2022/03/18 11:40:30;;;;;;;0.70;0.37;;;;;;;17.10;28.44;96913.84;5133384;27;20438;-55
2022/03/18 11:43:32;;;;;;;6.43;1.27;;;;;;;16.70;22.85;96922.72;5132783;27;20423;-54
2022/03/18 11:46:25;;;;;;;0.43;0.43;;;;;;;14.81;22.18;96891.31;5132968;27;20490;-55
2022/03/18 11:48:55;;;;;;;0.60;0.37;;;;;;;16.01;35.36;96913.53;5133212;27;20474;-55
2022/03/18 11:51:31;;;;;;;0.50;0.50;;;;;;;14.74;23.18;96904.09;5132975;27;20484;-55
2022/03/18 11:54:00;;;;;;;0.67;0.63;;;;;;;14.71;24.03;96904.59;5132760;27;20426;-55
2022/03/18 11:56:47;;;;;;;0.50;0.40;;;;;;;14.78;26.67;96891.84;5132871;27;20452;-55
2022/03/18 11:59:38;;;;;;;0.73;0.50;;;;;;;14.34;21.25;96896.59;5133408;27;20498;-55
2022/03/18 12:02:09;;;;;;;0.40;0.30;;;;;;;14.59;21.61;96887.97;5127958;27;20553;-55
2022/03/18 12:04:44;;;;;;;0.50;0.40;;;;;;;15.41;20.28;96887.34;5132639;27;20418;-55
2022/03/18 12:07:19;;;;;;;0.50;0.30;;;;;;;14.77;21.97;96892.91;5132574;27;20856;-55
2022/03/18 12:09:58;;;;;;;0.40;0.40;;;;;;;14.47;20.70;96877.47;5132886;27;20526;-55